createdAt,value
2017-07-15T00:00:52.865Z,0
2017-07-15T00:01:52.889Z,0
2017-07-15T00:02:52.888Z,0
2017-07-15T00:03:52.890Z,0
2017-07-15T00:04:52.890Z,0
2017-07-15T00:05:52.928Z,0
2017-07-15T00:06:52.861Z,0
2017-07-15T00:07:52.928Z,0
2017-07-15T00:08:53.021Z,0
2017-07-15T00:09:52.893Z,0
2017-07-15T00:10:52.877Z,0
2017-07-15T00:11:52.896Z,0
2017-07-15T00:12:52.897Z,0
2017-07-15T00:13:52.943Z,0
2017-07-15T00:14:52.982Z,0
2017-07-15T00:15:52.888Z,0
2017-07-15T00:16:52.944Z,0
2017-07-15T00:17:52.946Z,0
2017-07-15T00:18:52.965Z,0
2017-07-15T00:19:52.912Z,0
2017-07-15T00:20:52.843Z,0
2017-07-15T00:21:52.884Z,0
2017-07-15T00:22:52.844Z,0
2017-07-15T00:23:52.904Z,0
2017-07-15T00:24:52.874Z,0
2017-07-15T00:25:52.901Z,0
2017-07-15T00:26:52.852Z,0
2017-07-15T00:27:52.862Z,0
2017-07-15T00:28:52.905Z,0
2017-07-15T00:29:52.944Z,0
2017-07-15T00:30:52.874Z,0
2017-07-15T00:31:52.903Z,0
2017-07-15T00:32:52.902Z,0
2017-07-15T00:33:52.902Z,0
2017-07-15T00:34:52.903Z,0
2017-07-15T00:35:52.903Z,0
2017-07-15T00:36:52.882Z,0
2017-07-15T00:37:52.941Z,0
2017-07-15T00:38:52.948Z,0
2017-07-15T00:39:52.873Z,0
2017-07-15T00:40:52.902Z,0
2017-07-15T00:41:52.903Z,0
2017-07-15T00:42:52.884Z,0
2017-07-15T00:43:52.833Z,0
2017-07-15T00:44:52.835Z,0
2017-07-15T00:45:52.935Z,0
2017-07-15T00:46:52.848Z,0
2017-07-15T00:47:52.846Z,0
2017-07-15T00:48:52.848Z,0
2017-07-15T00:49:52.839Z,0
2017-07-15T00:50:52.839Z,0
2017-07-15T00:51:52.841Z,0
2017-07-15T00:52:52.940Z,0
2017-07-15T00:53:52.916Z,0
2017-07-15T00:54:52.873Z,0
2017-07-15T00:55:52.918Z,0
2017-07-15T00:56:52.892Z,0
2017-07-15T00:57:52.918Z,0
2017-07-15T00:58:52.900Z,0
2017-07-15T00:59:52.870Z,0
2017-07-15T01:00:52.896Z,0
2017-07-15T01:01:52.924Z,0
2017-07-15T01:03:52.885Z,0
2017-07-15T01:04:52.966Z,0
2017-07-15T01:05:52.913Z,0
2017-07-15T01:06:52.924Z,0
2017-07-15T01:07:52.970Z,0
2017-07-15T01:08:52.900Z,0
2017-07-15T01:09:52.898Z,0
2017-07-15T01:10:52.901Z,0
2017-07-15T01:11:52.872Z,0
2017-07-15T01:12:52.881Z,0
2017-07-15T01:13:52.908Z,0
2017-07-15T01:14:52.930Z,0
2017-07-15T01:15:52.942Z,0
2017-07-15T01:16:52.912Z,0
2017-07-15T01:17:52.910Z,0
2017-07-15T01:18:52.928Z,0
2017-07-15T01:19:52.906Z,0
2017-07-15T01:20:52.911Z,0
2017-07-15T01:21:52.935Z,0
2017-07-15T01:22:52.915Z,0
2017-07-15T01:23:52.967Z,0
2017-07-15T01:24:52.945Z,0
2017-07-15T01:25:52.952Z,0
2017-07-15T01:26:52.924Z,0
2017-07-15T01:27:52.971Z,0
2017-07-15T01:28:52.979Z,0
2017-07-15T01:29:52.911Z,0
2017-07-15T01:30:52.948Z,0
2017-07-15T01:31:52.963Z,0
2017-07-15T01:32:52.923Z,0
2017-07-15T01:33:52.985Z,0
2017-07-15T01:34:53.014Z,0
2017-07-15T01:35:52.980Z,0
2017-07-15T01:36:52.986Z,0
2017-07-15T01:37:52.943Z,0
2017-07-15T01:38:52.971Z,0
2017-07-15T01:39:52.928Z,0
2017-07-15T01:40:52.920Z,0
2017-07-15T01:41:52.989Z,0
2017-07-15T01:42:52.919Z,0
2017-07-15T01:43:52.993Z,0
2017-07-15T01:44:52.986Z,0
2017-07-15T01:45:52.973Z,0
2017-07-15T01:46:52.927Z,0
2017-07-15T01:47:52.948Z,0
2017-07-15T01:48:52.996Z,0
2017-07-15T01:49:52.922Z,0
2017-07-15T01:50:53.017Z,0
2017-07-15T01:51:52.959Z,0
2017-07-15T01:52:53.021Z,0
2017-07-15T01:53:52.903Z,0
2017-07-15T01:54:52.892Z,0
2017-07-15T01:55:52.850Z,0
2017-07-15T01:56:52.917Z,0
2017-07-15T01:57:52.917Z,0
2017-07-15T01:58:52.898Z,0
2017-07-15T01:59:52.933Z,0
2017-07-15T02:00:52.840Z,0
2017-07-15T02:01:52.919Z,0
2017-07-15T02:02:52.925Z,0
2017-07-15T02:03:52.931Z,0
2017-07-15T02:04:52.985Z,0
2017-07-15T02:05:52.970Z,0
2017-07-15T02:06:52.938Z,0
2017-07-15T02:07:52.937Z,0
2017-07-15T02:08:52.937Z,0
2017-07-15T02:09:52.973Z,0
2017-07-15T02:10:52.961Z,0
2017-07-15T02:11:53.018Z,0
2017-07-15T02:12:52.931Z,0
2017-07-15T02:13:52.986Z,0
2017-07-15T02:14:52.945Z,0
2017-07-15T02:15:52.929Z,0
2017-07-15T02:16:52.939Z,0
2017-07-15T02:17:52.958Z,0
2017-07-15T02:18:52.967Z,0
2017-07-15T02:19:52.953Z,0
2017-07-15T02:20:52.924Z,0
2017-07-15T02:21:53.091Z,0
2017-07-15T02:22:52.940Z,0
2017-07-15T02:23:52.935Z,0
2017-07-15T02:24:52.965Z,0
2017-07-15T02:25:52.964Z,0
2017-07-15T02:26:52.970Z,0
2017-07-15T02:27:52.964Z,0
2017-07-15T02:28:53.002Z,0
2017-07-15T02:29:53.002Z,0
2017-07-15T02:30:53.000Z,0
2017-07-15T02:31:53.005Z,0
2017-07-15T02:32:52.970Z,0
2017-07-15T02:33:53.024Z,0
2017-07-15T02:34:52.970Z,0
2017-07-15T02:35:52.966Z,0
2017-07-15T02:36:52.938Z,0
2017-07-15T02:37:52.942Z,0
2017-07-15T02:38:52.943Z,0
2017-07-15T02:39:53.005Z,0
2017-07-15T02:40:53.009Z,0
2017-07-15T02:41:52.973Z,0
2017-07-15T02:42:52.947Z,0
2017-07-15T02:43:52.971Z,0
2017-07-15T02:44:52.929Z,0
2017-07-15T02:45:53.021Z,0
2017-07-15T02:46:52.934Z,0
2017-07-15T02:47:52.929Z,0
2017-07-15T02:48:52.980Z,0
2017-07-15T02:49:52.931Z,0
2017-07-15T02:50:52.938Z,0
2017-07-15T02:51:52.937Z,0
2017-07-15T02:52:52.944Z,0
2017-07-15T02:53:52.928Z,0
2017-07-15T02:54:52.979Z,0
2017-07-15T02:55:52.913Z,0
2017-07-15T02:56:53.027Z,0
2017-07-15T02:57:53.022Z,0
2017-07-15T02:58:52.981Z,0
2017-07-15T02:59:52.970Z,0
2017-07-15T03:01:52.987Z,0
2017-07-15T03:02:52.934Z,0
2017-07-15T03:03:53.033Z,0
2017-07-15T03:04:52.978Z,0
2017-07-15T03:05:52.947Z,0
2017-07-15T03:06:52.936Z,0
2017-07-15T03:07:52.936Z,0
2017-07-15T03:08:52.995Z,0
2017-07-15T03:09:53.033Z,0
2017-07-15T03:10:52.940Z,0
2017-07-15T03:11:52.944Z,0
2017-07-15T03:12:52.984Z,0
2017-07-15T03:13:52.978Z,0
2017-07-15T03:14:53.025Z,0
2017-07-15T03:15:53.029Z,0
2017-07-15T03:16:52.971Z,0
2017-07-15T03:17:53.034Z,0
2017-07-15T03:18:52.997Z,0
2017-07-15T03:19:52.968Z,0
2017-07-15T03:20:52.967Z,0
2017-07-15T03:21:52.969Z,0
2017-07-15T03:22:52.968Z,0
2017-07-15T03:23:53.031Z,0
2017-07-15T03:24:53.046Z,0
2017-07-15T03:25:53.005Z,0
2017-07-15T03:26:52.980Z,0
2017-07-15T03:27:53.052Z,0
2017-07-15T03:28:53.081Z,0
2017-07-15T03:29:52.977Z,0
2017-07-15T03:30:53.017Z,0
2017-07-15T03:31:53.042Z,0
2017-07-15T03:32:52.993Z,0
2017-07-15T03:33:53.106Z,0
2017-07-15T03:34:53.013Z,0
2017-07-15T03:35:52.982Z,0
2017-07-15T03:36:53.012Z,0
2017-07-15T03:37:53.020Z,0
2017-07-15T03:38:53.074Z,0
2017-07-15T03:39:53.055Z,0
2017-07-15T03:40:53.078Z,0
2017-07-15T03:41:53.012Z,0
2017-07-15T03:42:53.045Z,0
2017-07-15T03:43:52.987Z,0
2017-07-15T03:44:53.018Z,0
2017-07-15T03:45:53.076Z,0
2017-07-15T03:46:53.009Z,0
2017-07-15T03:47:52.990Z,0
2017-07-15T03:48:52.983Z,0
2017-07-15T03:49:52.985Z,0
2017-07-15T03:50:52.980Z,0
2017-07-15T03:51:53.015Z,0
2017-07-15T03:52:52.980Z,0
2017-07-15T03:53:53.009Z,0
2017-07-15T03:54:53.026Z,0
2017-07-15T03:55:53.047Z,0
2017-07-15T03:56:53.002Z,0
2017-07-15T03:57:53.085Z,13
2017-07-15T03:58:53.015Z,12
2017-07-15T03:59:53.033Z,14
2017-07-15T04:00:53.050Z,16
2017-07-15T04:01:53.049Z,14
2017-07-15T04:02:52.998Z,13
2017-07-15T04:03:53.073Z,13
2017-07-15T04:04:53.056Z,14
2017-07-15T04:05:53.030Z,13
2017-07-15T04:06:52.995Z,11
2017-07-15T04:07:52.995Z,7
2017-07-15T04:08:53.018Z,6
2017-07-15T04:09:52.997Z,4
2017-07-15T04:10:52.972Z,0
2017-07-15T04:11:53.062Z,0
2017-07-15T04:12:52.978Z,0
2017-07-15T04:13:53.143Z,0
2017-07-15T04:14:53.077Z,0
2017-07-15T04:15:53.057Z,0
2017-07-15T04:16:53.008Z,0
2017-07-15T04:17:53.078Z,0
2017-07-15T04:18:53.062Z,0
2017-07-15T04:19:53.010Z,0
2017-07-15T04:20:53.062Z,0
2017-07-15T04:21:53.080Z,0
2017-07-15T04:22:53.014Z,0
2017-07-15T04:23:53.034Z,0
2017-07-15T04:24:53.049Z,0
2017-07-15T04:25:53.082Z,0
2017-07-15T04:26:53.037Z,0
2017-07-15T04:27:53.091Z,0
2017-07-15T04:28:53.103Z,0
2017-07-15T04:29:53.043Z,0
2017-07-15T04:30:53.013Z,0
2017-07-15T04:31:53.050Z,0
2017-07-15T04:32:53.011Z,0
2017-07-15T04:33:53.046Z,0
2017-07-15T04:34:53.045Z,0
2017-07-15T04:35:53.017Z,0
2017-07-15T04:36:53.047Z,0
2017-07-15T04:37:53.105Z,0
2017-07-15T04:38:53.022Z,0
2017-07-15T04:39:53.074Z,0
2017-07-15T04:40:53.089Z,16
2017-07-15T04:41:53.074Z,18
2017-07-15T04:42:53.052Z,18
2017-07-15T04:43:53.080Z,19
2017-07-15T04:44:53.115Z,16
2017-07-15T04:45:53.029Z,14
2017-07-15T04:46:53.063Z,12
2017-07-15T04:47:53.117Z,11
2017-07-15T04:48:53.055Z,10
2017-07-15T04:49:53.100Z,9
2017-07-15T04:50:53.095Z,8
2017-07-15T04:51:53.021Z,9
2017-07-15T04:52:53.116Z,8
2017-07-15T04:53:53.065Z,10
2017-07-15T04:54:53.099Z,10
2017-07-15T04:55:53.101Z,7
2017-07-15T04:56:53.088Z,10
2017-07-15T04:57:53.122Z,11
2017-07-15T04:58:53.032Z,13
2017-07-15T04:59:53.088Z,14
2017-07-15T05:00:53.130Z,17
2017-07-15T05:01:53.070Z,19
2017-07-15T05:02:53.065Z,26
2017-07-15T05:03:53.095Z,38
2017-07-15T05:04:53.039Z,39
2017-07-15T05:05:53.074Z,41
2017-07-15T05:06:53.043Z,46
2017-07-15T05:07:53.091Z,59
2017-07-15T05:08:53.042Z,58
2017-07-15T05:09:53.110Z,58
2017-07-15T05:10:53.073Z,60
2017-07-15T05:11:53.106Z,57
2017-07-15T05:12:53.100Z,50
2017-07-15T05:13:53.066Z,44
2017-07-15T05:14:53.113Z,51
2017-07-15T05:15:53.062Z,62
2017-07-15T05:16:53.060Z,68
2017-07-15T05:17:53.097Z,74
2017-07-15T05:18:53.033Z,83
2017-07-15T05:19:53.073Z,73
2017-07-15T05:20:53.069Z,63
2017-07-15T05:21:53.037Z,58
2017-07-15T05:22:53.035Z,55
2017-07-15T05:23:53.097Z,55
2017-07-15T05:24:53.050Z,52
2017-07-15T05:25:53.043Z,53
2017-07-15T05:26:53.045Z,56
2017-07-15T05:27:53.113Z,60
2017-07-15T05:28:53.083Z,69
2017-07-15T05:29:53.053Z,75
2017-07-15T05:30:53.090Z,70
2017-07-15T05:31:53.143Z,54
2017-07-15T05:32:53.048Z,47
2017-07-15T05:33:53.122Z,44
2017-07-15T05:34:53.145Z,44
2017-07-15T05:35:53.115Z,40
2017-07-15T05:36:53.128Z,47
2017-07-15T05:37:53.089Z,47
2017-07-15T05:38:53.142Z,48
2017-07-15T05:39:53.124Z,53
2017-07-15T05:40:53.110Z,58
2017-07-15T05:41:53.054Z,54
2017-07-15T05:42:53.058Z,43
2017-07-15T05:43:53.082Z,36
2017-07-15T05:44:53.063Z,38
2017-07-15T05:45:53.121Z,35
2017-07-15T05:46:53.123Z,26
2017-07-15T05:47:53.124Z,25
2017-07-15T05:48:53.058Z,23
2017-07-15T05:49:53.066Z,26
2017-07-15T05:50:53.091Z,34
2017-07-15T05:51:53.160Z,28
2017-07-15T05:52:53.129Z,23
2017-07-15T05:53:53.096Z,23
2017-07-15T05:54:53.060Z,27
2017-07-15T05:55:53.061Z,33
2017-07-15T05:56:53.096Z,37
2017-07-15T05:57:53.118Z,42
2017-07-15T05:58:53.134Z,36
2017-07-15T05:59:53.071Z,27
2017-07-15T06:00:53.122Z,23
2017-07-15T06:01:53.142Z,20
2017-07-15T06:02:53.066Z,21
2017-07-15T06:03:53.126Z,26
2017-07-15T06:04:53.106Z,41
2017-07-15T06:05:53.140Z,49
2017-07-15T06:06:53.160Z,51
2017-07-15T06:07:53.107Z,50
2017-07-15T06:08:53.074Z,48
2017-07-15T06:09:53.167Z,57
2017-07-15T06:10:53.100Z,58
2017-07-15T06:11:53.090Z,61
2017-07-15T06:12:53.165Z,70
2017-07-15T06:13:53.148Z,77
2017-07-15T06:14:53.127Z,86
2017-07-15T06:15:53.126Z,83
2017-07-15T06:16:53.100Z,69
2017-07-15T06:17:53.163Z,56
2017-07-15T06:18:53.066Z,57
2017-07-15T06:19:53.066Z,64
2017-07-15T06:20:53.253Z,70
2017-07-15T06:21:53.137Z,76
2017-07-15T06:22:53.072Z,68
2017-07-15T06:23:53.131Z,61
2017-07-15T06:24:53.100Z,56
2017-07-15T06:25:53.106Z,52
2017-07-15T06:26:53.078Z,64
2017-07-15T06:27:53.102Z,68
2017-07-15T06:28:53.077Z,63
2017-07-15T06:29:53.149Z,65
2017-07-15T06:30:53.065Z,95
2017-07-15T06:31:53.088Z,120
2017-07-15T06:32:53.106Z,114
2017-07-15T06:33:53.096Z,114
2017-07-15T06:34:53.108Z,97
2017-07-15T06:35:53.197Z,99
2017-07-15T06:36:53.077Z,106
2017-07-15T06:37:53.011Z,107
2017-07-15T06:38:53.011Z,90
2017-07-15T06:39:53.081Z,85
2017-07-15T06:40:53.091Z,97
2017-07-15T06:41:53.018Z,107
2017-07-15T06:42:53.087Z,107
2017-07-15T06:43:53.096Z,116
2017-07-15T06:44:53.028Z,111
2017-07-15T06:45:53.093Z,121
2017-07-15T06:46:53.104Z,114
2017-07-15T06:47:53.076Z,144
2017-07-15T06:48:53.087Z,140
2017-07-15T06:49:53.111Z,157
2017-07-15T06:50:53.095Z,174
2017-07-15T06:51:53.116Z,189
2017-07-15T06:52:53.036Z,184
2017-07-15T06:53:53.074Z,213
2017-07-15T06:54:53.134Z,243
2017-07-15T06:55:53.082Z,298
2017-07-15T06:56:53.094Z,390
2017-07-15T06:57:53.146Z,399
2017-07-15T06:58:53.083Z,353
2017-07-15T06:59:53.099Z,257
2017-07-15T07:00:53.097Z,228
2017-07-15T07:01:53.119Z,194
2017-07-15T07:02:53.097Z,162
2017-07-15T07:03:53.102Z,161
2017-07-15T07:04:53.075Z,173
2017-07-15T07:05:53.121Z,173
2017-07-15T07:06:53.116Z,176
2017-07-15T07:07:53.090Z,186
2017-07-15T07:08:53.113Z,172
2017-07-15T07:09:53.118Z,157
2017-07-15T07:10:53.085Z,159
2017-07-15T07:11:53.123Z,173
2017-07-15T07:12:53.042Z,171
2017-07-15T07:13:53.044Z,171
2017-07-15T07:14:53.132Z,195
2017-07-15T07:15:53.110Z,203
2017-07-15T07:16:53.200Z,210
2017-07-15T07:17:53.203Z,230
2017-07-15T07:18:53.184Z,266
2017-07-15T07:19:53.107Z,266
2017-07-15T07:20:53.136Z,250
2017-07-15T07:21:53.136Z,222
2017-07-15T07:22:53.116Z,213
2017-07-15T07:23:53.203Z,207
2017-07-15T07:24:53.142Z,206
2017-07-15T07:25:53.166Z,198
2017-07-15T07:26:53.146Z,194
2017-07-15T07:27:53.113Z,229
2017-07-15T07:28:53.172Z,249
2017-07-15T07:29:53.185Z,241
2017-07-15T07:30:53.210Z,245
2017-07-15T07:31:53.148Z,239
2017-07-15T07:32:53.153Z,229
2017-07-15T07:33:53.213Z,226
2017-07-15T07:34:53.185Z,239
2017-07-15T07:35:53.178Z,257
2017-07-15T07:36:53.154Z,283
2017-07-15T07:37:53.214Z,285
2017-07-15T07:38:53.123Z,278
2017-07-15T07:39:53.156Z,289
2017-07-15T07:40:53.128Z,288
2017-07-15T07:41:53.216Z,264
2017-07-15T07:42:53.129Z,297
2017-07-15T07:43:53.128Z,305
2017-07-15T07:44:53.119Z,287
2017-07-15T07:45:53.054Z,296
2017-07-15T07:46:53.088Z,249
2017-07-15T07:47:53.037Z,247
2017-07-15T07:48:53.114Z,236
2017-07-15T07:49:53.053Z,256
2017-07-15T07:50:53.055Z,196
2017-07-15T07:51:53.064Z,198
2017-07-15T07:52:53.116Z,255
2017-07-15T07:53:53.094Z,234
2017-07-15T07:54:53.116Z,292
2017-07-15T07:55:53.145Z,271
2017-07-15T07:56:53.157Z,231
2017-07-15T07:57:53.118Z,231
2017-07-15T07:58:53.153Z,183
2017-07-15T07:59:53.188Z,206
2017-07-15T08:00:53.124Z,212
2017-07-15T08:01:53.126Z,178
2017-07-15T08:02:53.159Z,172
2017-07-15T08:03:53.152Z,169
2017-07-15T08:04:53.194Z,166
2017-07-15T08:05:53.140Z,187
2017-07-15T08:06:53.233Z,204
2017-07-15T08:07:53.211Z,217
2017-07-15T08:08:53.178Z,241
2017-07-15T08:09:53.167Z,224
2017-07-15T08:10:53.214Z,209
2017-07-15T08:11:53.199Z,240
2017-07-15T08:12:53.199Z,204
2017-07-15T08:13:53.140Z,194
2017-07-15T08:14:53.204Z,209
2017-07-15T08:15:53.149Z,297
2017-07-15T08:16:53.232Z,972
2017-07-15T08:17:53.199Z,1082
2017-07-15T08:18:53.167Z,347
2017-07-15T08:19:53.233Z,1012
2017-07-15T08:20:53.153Z,1223
2017-07-15T08:21:53.182Z,368
2017-07-15T08:22:53.206Z,504
2017-07-15T08:23:53.217Z,1028
2017-07-15T08:24:53.181Z,832
2017-07-15T08:25:53.179Z,359
2017-07-15T08:26:53.152Z,388
2017-07-15T08:27:53.172Z,309
2017-07-15T08:28:53.151Z,244
2017-07-15T08:29:53.178Z,277
2017-07-15T08:30:53.175Z,286
2017-07-15T08:31:53.209Z,332
2017-07-15T08:32:53.242Z,577
2017-07-15T08:33:53.190Z,528
2017-07-15T08:34:53.244Z,534
2017-07-15T08:35:53.192Z,996
2017-07-15T08:36:53.225Z,417
2017-07-15T08:37:53.158Z,348
2017-07-15T08:38:53.224Z,343
2017-07-15T08:39:53.248Z,363
2017-07-15T08:40:53.209Z,376
2017-07-15T08:41:53.228Z,385
2017-07-15T08:42:53.189Z,365
2017-07-15T08:43:53.162Z,381
2017-07-15T08:44:53.250Z,420
2017-07-15T08:45:53.189Z,484
2017-07-15T08:46:53.193Z,536
2017-07-15T08:47:53.153Z,584
2017-07-15T08:48:53.183Z,685
2017-07-15T08:49:53.234Z,604
2017-07-15T08:50:53.194Z,649
2017-07-15T08:51:53.248Z,687
2017-07-15T08:52:53.270Z,1028
2017-07-15T08:53:53.229Z,615
2017-07-15T08:54:53.236Z,560
2017-07-15T08:55:53.309Z,556
2017-07-15T08:56:53.187Z,525
2017-07-15T08:57:53.189Z,656
2017-07-15T08:58:53.224Z,449
2017-07-15T08:59:53.234Z,407
2017-07-15T09:00:53.181Z,216
2017-07-15T09:01:53.176Z,332
2017-07-15T09:02:53.141Z,301
2017-07-15T09:03:53.169Z,279
2017-07-15T09:04:53.147Z,262
2017-07-15T09:05:53.226Z,250
2017-07-15T09:06:53.201Z,242
2017-07-15T09:07:53.180Z,236
2017-07-15T09:08:53.238Z,229
2017-07-15T09:09:53.257Z,227
2017-07-15T09:10:53.258Z,225
2017-07-15T09:11:53.239Z,225
2017-07-15T09:12:53.227Z,225
2017-07-15T09:13:53.263Z,223
2017-07-15T09:14:53.212Z,220
2017-07-15T09:15:53.194Z,219
2017-07-15T09:16:53.234Z,221
2017-07-15T09:17:53.139Z,221
2017-07-15T09:18:53.170Z,227
2017-07-15T09:19:53.187Z,235
2017-07-15T09:20:53.146Z,238
2017-07-15T09:21:53.148Z,239
2017-07-15T09:22:53.198Z,239
2017-07-15T09:23:53.198Z,245
2017-07-15T09:24:53.242Z,254
2017-07-15T09:25:53.185Z,281
2017-07-15T09:26:53.268Z,302
2017-07-15T09:27:53.233Z,320
2017-07-15T09:28:53.274Z,337
2017-07-15T09:29:53.180Z,355
2017-07-15T09:30:53.187Z,375
2017-07-15T09:31:53.187Z,396
2017-07-15T09:32:53.203Z,424
2017-07-15T09:33:53.185Z,446
2017-07-15T09:34:53.184Z,460
2017-07-15T09:35:53.158Z,466
2017-07-15T09:36:53.151Z,472
2017-07-15T09:37:53.206Z,478
2017-07-15T09:38:53.210Z,478
2017-07-15T09:39:53.199Z,478
2017-07-15T09:40:53.205Z,504
2017-07-15T09:41:53.165Z,541
2017-07-15T09:42:53.208Z,580
2017-07-15T09:43:53.160Z,616
2017-07-15T09:44:53.186Z,614
2017-07-15T09:45:53.227Z,600
2017-07-15T09:46:53.281Z,397
2017-07-15T09:47:53.289Z,309
2017-07-15T09:48:53.199Z,264
2017-07-15T09:49:53.213Z,247
2017-07-15T09:50:53.260Z,238
2017-07-15T09:51:53.227Z,234
2017-07-15T09:52:53.263Z,236
2017-07-15T09:53:53.293Z,240
2017-07-15T09:54:53.285Z,246
2017-07-15T09:55:53.252Z,268
2017-07-15T09:56:53.249Z,307
2017-07-15T09:57:53.260Z,353
2017-07-15T09:58:53.226Z,410
2017-07-15T09:59:53.234Z,486
2017-07-15T10:00:53.328Z,618
2017-07-15T10:01:53.233Z,691
2017-07-15T10:02:53.203Z,582
2017-07-15T10:03:53.201Z,1409
2017-07-15T10:04:53.297Z,1506
2017-07-15T10:06:53.346Z,748
2017-07-15T10:07:53.239Z,862
2017-07-15T10:08:53.157Z,890
2017-07-15T10:09:53.228Z,988
2017-07-15T10:10:53.200Z,884
2017-07-15T10:11:53.223Z,645
2017-07-15T10:12:53.229Z,555
2017-07-15T10:13:53.159Z,526
2017-07-15T10:14:53.217Z,505
2017-07-15T10:15:53.211Z,479
2017-07-15T10:16:53.234Z,478
2017-07-15T10:17:53.243Z,372
2017-07-15T10:18:53.207Z,325
2017-07-15T10:19:53.219Z,237
2017-07-15T10:20:53.307Z,194
2017-07-15T10:21:53.215Z,159
2017-07-15T10:22:53.282Z,115
2017-07-15T10:23:53.284Z,82
2017-07-15T10:24:53.305Z,67
2017-07-15T10:25:53.304Z,62
2017-07-15T10:26:53.214Z,62
2017-07-15T10:27:53.216Z,60
2017-07-15T10:28:53.253Z,58
2017-07-15T10:29:53.215Z,56
2017-07-15T10:30:53.215Z,59
2017-07-15T10:31:53.252Z,65
2017-07-15T10:32:53.222Z,83
2017-07-15T10:33:53.219Z,109
2017-07-15T10:34:53.277Z,137
2017-07-15T10:35:53.218Z,159
2017-07-15T10:36:53.288Z,177
2017-07-15T10:37:53.252Z,203
2017-07-15T10:38:53.281Z,247
2017-07-15T10:39:53.255Z,284
2017-07-15T10:40:53.259Z,301
2017-07-15T10:41:53.317Z,318
2017-07-15T10:42:53.272Z,337
2017-07-15T10:43:53.290Z,357
2017-07-15T10:44:53.319Z,372
2017-07-15T10:45:53.315Z,371
2017-07-15T10:46:53.320Z,375
2017-07-15T10:47:53.259Z,395
2017-07-15T10:48:53.225Z,430
2017-07-15T10:49:53.227Z,469
2017-07-15T10:50:53.233Z,344
2017-07-15T10:51:53.226Z,342
2017-07-15T10:52:53.250Z,354
2017-07-15T10:53:53.263Z,387
2017-07-15T10:54:53.232Z,437
2017-07-15T10:55:53.285Z,1068
2017-07-15T10:56:53.296Z,1063
2017-07-15T10:57:53.234Z,572
2017-07-15T10:58:53.233Z,513
2017-07-15T10:59:53.303Z,583
2017-07-15T11:00:53.307Z,1483
2017-07-15T11:01:53.326Z,432
2017-07-15T11:02:53.256Z,389
2017-07-15T11:03:53.270Z,362
2017-07-15T11:04:53.267Z,203
2017-07-15T11:05:53.251Z,353
2017-07-15T11:06:53.251Z,360
2017-07-15T11:07:53.254Z,368
2017-07-15T11:08:53.259Z,376
2017-07-15T11:09:53.258Z,382
2017-07-15T11:10:53.250Z,401
2017-07-15T11:11:53.262Z,423
2017-07-15T11:12:53.253Z,444
2017-07-15T11:13:53.308Z,465
2017-07-15T11:14:53.254Z,492
2017-07-15T11:15:53.235Z,505
2017-07-15T11:16:53.258Z,847
2017-07-15T11:17:53.237Z,1499
2017-07-15T11:18:53.247Z,828
2017-07-15T11:19:53.245Z,572
2017-07-15T11:20:53.380Z,619
2017-07-15T11:21:53.198Z,657
2017-07-15T11:22:53.252Z,909
2017-07-15T11:23:53.245Z,789
2017-07-15T11:24:53.263Z,676
2017-07-15T11:25:53.181Z,598
2017-07-15T11:26:53.246Z,529
2017-07-15T11:27:53.234Z,425
2017-07-15T11:28:53.261Z,376
2017-07-15T11:29:53.259Z,343
2017-07-15T11:30:53.262Z,319
2017-07-15T11:31:53.260Z,305
2017-07-15T11:32:53.302Z,287
2017-07-15T11:33:53.228Z,271
2017-07-15T11:34:53.247Z,266
2017-07-15T11:35:53.326Z,267
2017-07-15T11:36:53.277Z,282
2017-07-15T11:37:53.324Z,301
2017-07-15T11:38:53.257Z,321
2017-07-15T11:39:53.260Z,341
2017-07-15T11:40:53.343Z,372
2017-07-15T11:41:53.255Z,402
2017-07-15T11:42:53.283Z,424
2017-07-15T11:43:53.320Z,440
2017-07-15T11:44:53.324Z,454
2017-07-15T11:45:53.354Z,457
2017-07-15T11:46:53.263Z,464
2017-07-15T11:47:53.285Z,471
2017-07-15T11:48:53.317Z,485
2017-07-15T11:49:53.355Z,505
2017-07-15T11:50:53.266Z,507
2017-07-15T11:51:53.291Z,497
2017-07-15T11:52:53.336Z,481
2017-07-15T11:53:53.355Z,468
2017-07-15T11:54:53.357Z,450
2017-07-15T11:55:53.305Z,433
2017-07-15T11:56:53.287Z,423
2017-07-15T11:57:53.299Z,420
2017-07-15T11:58:53.289Z,423
2017-07-15T11:59:53.299Z,424
2017-07-15T12:00:53.330Z,430
2017-07-15T12:01:53.340Z,436
2017-07-15T12:02:53.305Z,443
2017-07-15T12:03:53.355Z,453
2017-07-15T12:04:53.277Z,453
2017-07-15T12:05:53.309Z,455
2017-07-15T12:06:53.339Z,446
2017-07-15T12:07:53.308Z,423
2017-07-15T12:08:53.310Z,389
2017-07-15T12:09:53.299Z,362
2017-07-15T12:10:53.305Z,361
2017-07-15T12:11:53.311Z,380
2017-07-15T12:12:53.341Z,409
2017-07-15T12:13:53.340Z,679
2017-07-15T12:14:53.359Z,607
2017-07-15T12:15:53.308Z,633
2017-07-15T12:16:53.278Z,641
2017-07-15T12:17:53.330Z,1066
2017-07-15T12:18:53.298Z,682
2017-07-15T12:19:53.361Z,756
2017-07-15T12:20:53.342Z,1329
2017-07-15T12:21:53.342Z,1431
2017-07-15T12:22:53.303Z,1013
2017-07-15T12:23:53.306Z,1133
2017-07-15T12:24:53.302Z,501
2017-07-15T12:25:53.214Z,416
2017-07-15T12:26:53.284Z,352
2017-07-15T12:27:53.243Z,324
2017-07-15T12:28:53.219Z,300
2017-07-15T12:29:53.331Z,281
2017-07-15T12:30:53.279Z,262
2017-07-15T12:31:53.296Z,252
2017-07-15T12:32:53.218Z,262
2017-07-15T12:33:53.282Z,284
2017-07-15T12:34:53.219Z,304
2017-07-15T12:35:53.297Z,326
2017-07-15T12:36:53.309Z,366
2017-07-15T12:37:53.265Z,389
2017-07-15T12:38:53.282Z,430
2017-07-15T12:39:53.296Z,397
2017-07-15T12:40:53.312Z,392
2017-07-15T12:41:53.320Z,396
2017-07-15T12:42:53.244Z,412
2017-07-15T12:43:53.255Z,432
2017-07-15T12:44:53.299Z,459
2017-07-15T12:45:53.267Z,489
2017-07-15T12:46:53.329Z,526
2017-07-15T12:47:53.300Z,586
2017-07-15T12:48:53.378Z,667
2017-07-15T12:49:53.320Z,717
2017-07-15T12:50:53.328Z,744
2017-07-15T12:51:53.351Z,763
2017-07-15T12:52:53.334Z,761
2017-07-15T12:53:53.324Z,702
2017-07-15T12:54:53.388Z,701
2017-07-15T12:55:53.350Z,684
2017-07-15T12:56:53.293Z,601
2017-07-15T12:57:53.253Z,593
2017-07-15T12:58:53.322Z,519
2017-07-15T12:59:53.334Z,493
2017-07-15T13:00:53.320Z,362
2017-07-15T13:01:53.314Z,295
2017-07-15T13:02:53.298Z,275
2017-07-15T13:03:53.326Z,280
2017-07-15T13:04:53.302Z,300
2017-07-15T13:05:53.304Z,320
2017-07-15T13:06:53.363Z,336
2017-07-15T13:07:53.340Z,352
2017-07-15T13:08:53.406Z,358
2017-07-15T13:09:53.403Z,359
2017-07-15T13:10:53.336Z,361
2017-07-15T13:11:53.317Z,357
2017-07-15T13:12:53.308Z,350
2017-07-15T13:13:53.341Z,337
2017-07-15T13:14:53.335Z,319
2017-07-15T13:15:53.320Z,303
2017-07-15T13:16:53.366Z,296
2017-07-15T13:17:53.279Z,287
2017-07-15T13:18:53.328Z,277
2017-07-15T13:19:53.334Z,267
2017-07-15T13:20:53.328Z,257
2017-07-15T13:21:53.326Z,245
2017-07-15T13:22:53.372Z,237
2017-07-15T13:23:53.310Z,230
2017-07-15T13:24:53.297Z,226
2017-07-15T13:25:53.328Z,227
2017-07-15T13:26:53.320Z,230
2017-07-15T13:27:53.321Z,236
2017-07-15T13:28:53.409Z,237
2017-07-15T13:29:53.357Z,238
2017-07-15T13:30:53.384Z,240
2017-07-15T13:31:53.387Z,243
2017-07-15T13:32:53.347Z,247
2017-07-15T13:33:53.383Z,253
2017-07-15T13:34:53.325Z,260
2017-07-15T13:35:53.321Z,263
2017-07-15T13:36:53.391Z,274
2017-07-15T13:37:53.325Z,282
2017-07-15T13:38:53.361Z,288
2017-07-15T13:39:53.400Z,297
2017-07-15T13:40:53.364Z,311
2017-07-15T13:41:53.395Z,331
2017-07-15T13:42:53.325Z,357
2017-07-15T13:43:53.386Z,402
2017-07-15T13:44:53.391Z,447
2017-07-15T13:45:53.427Z,478
2017-07-15T13:46:53.331Z,472
2017-07-15T13:47:53.355Z,487
2017-07-15T13:48:53.366Z,479
2017-07-15T13:49:53.336Z,510
2017-07-15T13:50:53.337Z,507
2017-07-15T13:51:53.405Z,491
2017-07-15T13:52:53.389Z,499
2017-07-15T13:53:53.342Z,541
2017-07-15T13:54:53.414Z,523
2017-07-15T13:55:53.429Z,515
2017-07-15T13:56:53.426Z,488
2017-07-15T13:57:53.412Z,475
2017-07-15T13:58:53.373Z,470
2017-07-15T13:59:53.399Z,473
2017-07-15T14:00:53.538Z,482
2017-07-15T14:01:53.379Z,492
2017-07-15T14:02:53.394Z,464
2017-07-15T14:03:53.401Z,459
2017-07-15T14:04:53.431Z,480
2017-07-15T14:05:53.402Z,475
2017-07-15T14:06:53.336Z,485
2017-07-15T14:07:53.379Z,516
2017-07-15T14:08:53.378Z,545
2017-07-15T14:09:53.376Z,554
2017-07-15T14:10:53.374Z,541
2017-07-15T14:11:53.440Z,525